sensor_id;sensor_type;location;lat;lon;timestamp;P1;durP1;ratioP1;P2;durP2;ratioP2
609;SDS011;292;48.800;9.216;2023-03-31T00:00:45;2.80;;;1.30;;
609;SDS011;292;48.800;9.216;2023-03-31T00:03:14;14.87;;;2.03;;
609;SDS011;292;48.800;9.216;2023-03-31T00:05:46;13.53;;;1.60;;
609;SDS011;292;48.800;9.216;2023-03-31T00:08:17;9.87;;;1.60;;
609;SDS011;292;48.800;9.216;2023-03-31T00:10:46;12.07;;;2.23;;
609;SDS011;292;48.800;9.216;2023-03-31T00:13:15;8.43;;;1.63;;
609;SDS011;292;48.800;9.216;2023-03-31T00:15:44;7.37;;;2.20;;
609;SDS011;292;48.800;9.216;2023-03-31T00:18:11;18.87;;;1.77;;
609;SDS011;292;48.800;9.216;2023-03-31T00:20:38;8.20;;;1.63;;
609;SDS011;292;48.800;9.216;2023-03-31T00:23:07;5.47;;;1.37;;
609;SDS011;292;48.800;9.216;2023-03-31T00:25:38;7.90;;;1.60;;
609;SDS011;292;48.800;9.216;2023-03-31T00:28:06;13.53;;;1.60;;
609;SDS011;292;48.800;9.216;2023-03-31T00:30:35;7.37;;;1.30;;
609;SDS011;292;48.800;9.216;2023-03-31T00:33:02;6.00;;;1.20;;
609;SDS011;292;48.800;9.216;2023-03-31T00:35:29;9.23;;;1.93;;
609;SDS011;292;48.800;9.216;2023-03-31T00:37:57;3.33;;;1.20;;
609;SDS011;292;48.800;9.216;2023-03-31T00:40:24;10.57;;;2.40;;
609;SDS011;292;48.800;9.216;2023-03-31T00:42:51;3.63;;;1.40;;
609;SDS011;292;48.800;9.216;2023-03-31T00:45:26;6.43;;;1.80;;
609;SDS011;292;48.800;9.216;2023-03-31T00:47:56;9.57;;;2.07;;
609;SDS011;292;48.800;9.216;2023-03-31T00:50:36;10.00;;;1.70;;
609;SDS011;292;48.800;9.216;2023-03-31T00:53:09;3.27;;;1.50;;
609;SDS011;292;48.800;9.216;2023-03-31T00:55:40;7.27;;;1.63;;
609;SDS011;292;48.800;9.216;2023-03-31T00:58:10;4.27;;;1.80;;
609;SDS011;292;48.800;9.216;2023-03-31T01:00:44;11.10;;;2.27;;
609;SDS011;292;48.800;9.216;2023-03-31T01:03:14;6.83;;;2.00;;
609;SDS011;292;48.800;9.216;2023-03-31T01:05:43;5.97;;;2.00;;
609;SDS011;292;48.800;9.216;2023-03-31T01:08:14;8.97;;;1.83;;
609;SDS011;292;48.800;9.216;2023-03-31T01:10:44;8.73;;;2.00;;
609;SDS011;292;48.800;9.216;2023-03-31T01:13:14;13.00;;;2.47;;
609;SDS011;292;48.800;9.216;2023-03-31T01:15:43;6.87;;;1.97;;
609;SDS011;292;48.800;9.216;2023-03-31T01:18:10;6.90;;;2.03;;
609;SDS011;292;48.800;9.216;2023-03-31T01:20:47;5.77;;;1.70;;
609;SDS011;292;48.800;9.216;2023-03-31T01:23:34;7.17;;;1.57;;
609;SDS011;292;48.800;9.216;2023-03-31T01:26:37;10.90;;;2.23;;
609;SDS011;292;48.800;9.216;2023-03-31T01:29:22;11.57;;;1.80;;
609;SDS011;292;48.800;9.216;2023-03-31T01:32:22;8.63;;;1.97;;
609;SDS011;292;48.800;9.216;2023-03-31T01:35:12;8.27;;;1.93;;
609;SDS011;292;48.800;9.216;2023-03-31T01:38:10;8.40;;;2.03;;
609;SDS011;292;48.800;9.216;2023-03-31T01:41:09;6.90;;;1.97;;
609;SDS011;292;48.800;9.216;2023-03-31T01:43:49;8.40;;;2.10;;
609;SDS011;292;48.800;9.216;2023-03-31T01:46:24;6.70;;;1.63;;
609;SDS011;292;48.800;9.216;2023-03-31T01:48:58;6.87;;;2.07;;
609;SDS011;292;48.800;9.216;2023-03-31T01:51:34;8.23;;;2.00;;
609;SDS011;292;48.800;9.216;2023-03-31T01:54:07;8.93;;;2.17;;
609;SDS011;292;48.800;9.216;2023-03-31T01:56:42;7.37;;;1.90;;
609;SDS011;292;48.800;9.216;2023-03-31T01:59:15;5.27;;;1.87;;
609;SDS011;292;48.800;9.216;2023-03-31T02:01:47;9.30;;;2.00;;
609;SDS011;292;48.800;9.216;2023-03-31T02:04:20;13.03;;;2.03;;
609;SDS011;292;48.800;9.216;2023-03-31T02:06:54;9.37;;;1.80;;
609;SDS011;292;48.800;9.216;2023-03-31T02:09:26;6.77;;;1.70;;
609;SDS011;292;48.800;9.216;2023-03-31T02:12:00;8.27;;;1.70;;
609;SDS011;292;48.800;9.216;2023-03-31T02:14:33;16.80;;;2.23;;
609;SDS011;292;48.800;9.216;2023-03-31T02:17:03;5.87;;;1.53;;
609;SDS011;292;48.800;9.216;2023-03-31T02:19:34;7.77;;;1.57;;
609;SDS011;292;48.800;9.216;2023-03-31T02:22:05;7.70;;;1.73;;
609;SDS011;292;48.800;9.216;2023-03-31T02:24:34;7.20;;;1.53;;
609;SDS011;292;48.800;9.216;2023-03-31T02:27:06;7.83;;;1.70;;
609;SDS011;292;48.800;9.216;2023-03-31T02:29:36;12.63;;;2.60;;
609;SDS011;292;48.800;9.216;2023-03-31T02:32:07;10.07;;;2.37;;
609;SDS011;292;48.800;9.216;2023-03-31T02:34:37;7.70;;;2.00;;
609;SDS011;292;48.800;9.216;2023-03-31T02:37:05;6.00;;;1.80;;
609;SDS011;292;48.800;9.216;2023-03-31T02:39:33;4.60;;;1.63;;
609;SDS011;292;48.800;9.216;2023-03-31T02:42:01;5.93;;;1.73;;
609;SDS011;292;48.800;9.216;2023-03-31T02:44:33;11.40;;;1.83;;
609;SDS011;292;48.800;9.216;2023-03-31T02:47:00;7.00;;;1.90;;
609;SDS011;292;48.800;9.216;2023-03-31T02:49:29;8.77;;;2.40;;
609;SDS011;292;48.800;9.216;2023-03-31T02:52:02;10.20;;;1.70;;
609;SDS011;292;48.800;9.216;2023-03-31T02:54:59;12.20;;;1.60;;
609;SDS011;292;48.800;9.216;2023-03-31T02:57:49;7.53;;;1.90;;
609;SDS011;292;48.800;9.216;2023-03-31T03:00:55;8.60;;;2.60;;
609;SDS011;292;48.800;9.216;2023-03-31T03:03:35;7.00;;;1.73;;
609;SDS011;292;48.800;9.216;2023-03-31T03:06:15;11.07;;;2.73;;
609;SDS011;292;48.800;9.216;2023-03-31T03:08:53;5.60;;;1.93;;
609;SDS011;292;48.800;9.216;2023-03-31T03:11:44;5.67;;;1.80;;
609;SDS011;292;48.800;9.216;2023-03-31T03:14:18;6.60;;;2.10;;
609;SDS011;292;48.800;9.216;2023-03-31T03:16:56;10.80;;;2.70;;
609;SDS011;292;48.800;9.216;2023-03-31T03:19:26;9.17;;;2.03;;
609;SDS011;292;48.800;9.216;2023-03-31T03:21:54;8.20;;;1.90;;
609;SDS011;292;48.800;9.216;2023-03-31T03:24:21;15.97;;;3.00;;
609;SDS011;292;48.800;9.216;2023-03-31T03:26:53;6.00;;;1.83;;
609;SDS011;292;48.800;9.216;2023-03-31T03:29:26;9.60;;;2.20;;
609;SDS011;292;48.800;9.216;2023-03-31T03:31:55;10.47;;;2.40;;
609;SDS011;292;48.800;9.216;2023-03-31T03:34:23;10.97;;;2.50;;
609;SDS011;292;48.800;9.216;2023-03-31T03:36:51;5.27;;;1.53;;
609;SDS011;292;48.800;9.216;2023-03-31T03:39:18;10.93;;;2.27;;
609;SDS011;292;48.800;9.216;2023-03-31T03:41:45;8.27;;;2.03;;
609;SDS011;292;48.800;9.216;2023-03-31T03:44:14;18.67;;;3.00;;
609;SDS011;292;48.800;9.216;2023-03-31T03:46:42;18.80;;;2.87;;
609;SDS011;292;48.800;9.216;2023-03-31T03:49:10;7.70;;;1.80;;
609;SDS011;292;48.800;9.216;2023-03-31T03:51:37;10.80;;;2.77;;
609;SDS011;292;48.800;9.216;2023-03-31T03:54:05;3.83;;;1.93;;
609;SDS011;292;48.800;9.216;2023-03-31T03:56:33;10.63;;;2.47;;
609;SDS011;292;48.800;9.216;2023-03-31T03:59:03;7.93;;;2.70;;
609;SDS011;292;48.800;9.216;2023-03-31T04:01:31;5.13;;;1.83;;
609;SDS011;292;48.800;9.216;2023-03-31T04:04:01;8.20;;;2.30;;
609;SDS011;292;48.800;9.216;2023-03-31T04:06:31;9.53;;;2.30;;
609;SDS011;292;48.800;9.216;2023-03-31T04:08:59;10.00;;;2.43;;
609;SDS011;292;48.800;9.216;2023-03-31T04:11:27;15.27;;;2.60;;
609;SDS011;292;48.800;9.216;2023-03-31T04:13:54;8.13;;;2.93;;
609;SDS011;292;48.800;9.216;2023-03-31T04:16:21;7.93;;;2.30;;
609;SDS011;292;48.800;9.216;2023-03-31T04:18:51;11.53;;;2.80;;
609;SDS011;292;48.800;9.216;2023-03-31T04:21:23;12.63;;;2.97;;
609;SDS011;292;48.800;9.216;2023-03-31T04:23:54;8.27;;;3.27;;
609;SDS011;292;48.800;9.216;2023-03-31T04:26:29;8.60;;;2.77;;
609;SDS011;292;48.800;9.216;2023-03-31T04:29:06;6.27;;;2.50;;
609;SDS011;292;48.800;9.216;2023-03-31T04:31:34;7.13;;;3.07;;
609;SDS011;292;48.800;9.216;2023-03-31T04:34:06;14.73;;;2.37;;
609;SDS011;292;48.800;9.216;2023-03-31T04:36:37;10.20;;;2.70;;
609;SDS011;292;48.800;9.216;2023-03-31T04:39:13;10.07;;;2.70;;
609;SDS011;292;48.800;9.216;2023-03-31T04:41:41;8.73;;;2.33;;
609;SDS011;292;48.800;9.216;2023-03-31T04:44:08;11.43;;;2.97;;
609;SDS011;292;48.800;9.216;2023-03-31T04:46:35;8.87;;;2.77;;
609;SDS011;292;48.800;9.216;2023-03-31T04:49:02;6.67;;;2.53;;
609;SDS011;292;48.800;9.216;2023-03-31T04:51:31;9.50;;;2.50;;
609;SDS011;292;48.800;9.216;2023-03-31T04:53:58;11.70;;;2.60;;
609;SDS011;292;48.800;9.216;2023-03-31T04:56:26;12.80;;;2.60;;
609;SDS011;292;48.800;9.216;2023-03-31T04:58:57;10.07;;;2.80;;
609;SDS011;292;48.800;9.216;2023-03-31T05:01:24;12.70;;;2.63;;
609;SDS011;292;48.800;9.216;2023-03-31T05:03:51;11.03;;;3.10;;
609;SDS011;292;48.800;9.216;2023-03-31T05:06:18;11.57;;;3.73;;
609;SDS011;292;48.800;9.216;2023-03-31T05:08:47;11.63;;;3.30;;
609;SDS011;292;48.800;9.216;2023-03-31T05:11:15;9.93;;;3.13;;
609;SDS011;292;48.800;9.216;2023-03-31T05:13:44;9.60;;;2.40;;
609;SDS011;292;48.800;9.216;2023-03-31T05:16:11;9.70;;;3.00;;
609;SDS011;292;48.800;9.216;2023-03-31T05:18:40;10.50;;;3.50;;
609;SDS011;292;48.800;9.216;2023-03-31T05:21:09;5.93;;;2.87;;
609;SDS011;292;48.800;9.216;2023-03-31T05:23:37;11.93;;;3.53;;
609;SDS011;292;48.800;9.216;2023-03-31T05:26:05;9.30;;;2.70;;
609;SDS011;292;48.800;9.216;2023-03-31T05:28:33;15.53;;;2.97;;
609;SDS011;292;48.800;9.216;2023-03-31T05:31:04;10.53;;;3.97;;
609;SDS011;292;48.800;9.216;2023-03-31T05:33:33;9.97;;;3.40;;
609;SDS011;292;48.800;9.216;2023-03-31T05:36:05;10.80;;;3.23;;
609;SDS011;292;48.800;9.216;2023-03-31T05:38:35;16.90;;;4.00;;
609;SDS011;292;48.800;9.216;2023-03-31T05:41:03;10.07;;;4.20;;
609;SDS011;292;48.800;9.216;2023-03-31T05:43:30;11.17;;;3.73;;
609;SDS011;292;48.800;9.216;2023-03-31T05:45:58;14.00;;;4.07;;
609;SDS011;292;48.800;9.216;2023-03-31T05:48:26;11.93;;;4.77;;
609;SDS011;292;48.800;9.216;2023-03-31T05:50:56;10.23;;;3.80;;
609;SDS011;292;48.800;9.216;2023-03-31T05:53:23;17.33;;;4.03;;
609;SDS011;292;48.800;9.216;2023-03-31T05:55:55;7.63;;;3.10;;
609;SDS011;292;48.800;9.216;2023-03-31T05:58:27;10.80;;;3.57;;
609;SDS011;292;48.800;9.216;2023-03-31T06:01:00;11.43;;;3.50;;
609;SDS011;292;48.800;9.216;2023-03-31T06:03:31;8.17;;;3.13;;
609;SDS011;292;48.800;9.216;2023-03-31T06:05:59;15.43;;;4.20;;
609;SDS011;292;48.800;9.216;2023-03-31T06:08:27;13.57;;;5.00;;
609;SDS011;292;48.800;9.216;2023-03-31T06:10:54;11.07;;;4.10;;
609;SDS011;292;48.800;9.216;2023-03-31T06:13:23;10.40;;;3.53;;
609;SDS011;292;48.800;9.216;2023-03-31T06:15:53;10.30;;;3.50;;
609;SDS011;292;48.800;9.216;2023-03-31T06:18:21;14.53;;;5.10;;
609;SDS011;292;48.800;9.216;2023-03-31T06:20:51;11.80;;;4.40;;
609;SDS011;292;48.800;9.216;2023-03-31T06:23:21;10.20;;;3.53;;
609;SDS011;292;48.800;9.216;2023-03-31T06:25:53;9.10;;;3.83;;
609;SDS011;292;48.800;9.216;2023-03-31T06:28:26;8.90;;;3.60;;
609;SDS011;292;48.800;9.216;2023-03-31T06:30:58;8.87;;;3.87;;
609;SDS011;292;48.800;9.216;2023-03-31T06:33:27;13.37;;;5.20;;
609;SDS011;292;48.800;9.216;2023-03-31T06:35:56;11.40;;;4.00;;
609;SDS011;292;48.800;9.216;2023-03-31T06:38:25;15.90;;;4.77;;
609;SDS011;292;48.800;9.216;2023-03-31T06:40:53;10.50;;;4.07;;
609;SDS011;292;48.800;9.216;2023-03-31T06:43:24;15.70;;;4.20;;
609;SDS011;292;48.800;9.216;2023-03-31T06:45:53;17.23;;;4.60;;
609;SDS011;292;48.800;9.216;2023-03-31T06:48:21;15.10;;;4.70;;
609;SDS011;292;48.800;9.216;2023-03-31T06:50:49;10.13;;;4.30;;
609;SDS011;292;48.800;9.216;2023-03-31T06:53:18;18.33;;;5.00;;
609;SDS011;292;48.800;9.216;2023-03-31T06:55:46;19.07;;;4.63;;
609;SDS011;292;48.800;9.216;2023-03-31T06:58:13;9.53;;;3.93;;
609;SDS011;292;48.800;9.216;2023-03-31T07:00:40;9.40;;;5.00;;
609;SDS011;292;48.800;9.216;2023-03-31T07:03:09;14.50;;;4.53;;
609;SDS011;292;48.800;9.216;2023-03-31T07:05:37;24.83;;;5.47;;
609;SDS011;292;48.800;9.216;2023-03-31T07:08:04;15.33;;;5.60;;
609;SDS011;292;48.800;9.216;2023-03-31T07:10:33;21.83;;;5.57;;
609;SDS011;292;48.800;9.216;2023-03-31T07:13:01;19.90;;;5.63;;
609;SDS011;292;48.800;9.216;2023-03-31T07:15:28;11.77;;;4.47;;
609;SDS011;292;48.800;9.216;2023-03-31T07:17:56;21.13;;;5.17;;
609;SDS011;292;48.800;9.216;2023-03-31T07:20:27;11.27;;;3.97;;
609;SDS011;292;48.800;9.216;2023-03-31T07:22:55;7.73;;;3.80;;
609;SDS011;292;48.800;9.216;2023-03-31T07:25:23;11.07;;;3.90;;
609;SDS011;292;48.800;9.216;2023-03-31T07:27:51;10.97;;;3.03;;
609;SDS011;292;48.800;9.216;2023-03-31T07:30:19;12.20;;;3.47;;
609;SDS011;292;48.800;9.216;2023-03-31T07:32:47;7.20;;;2.83;;
609;SDS011;292;48.800;9.216;2023-03-31T07:35:15;13.30;;;3.17;;
609;SDS011;292;48.800;9.216;2023-03-31T07:37:44;5.47;;;2.90;;
609;SDS011;292;48.800;9.216;2023-03-31T07:40:13;8.33;;;2.50;;
609;SDS011;292;48.800;9.216;2023-03-31T07:42:43;7.27;;;2.70;;
609;SDS011;292;48.800;9.216;2023-03-31T07:45:16;10.63;;;2.37;;
609;SDS011;292;48.800;9.216;2023-03-31T07:47:50;5.80;;;2.40;;
609;SDS011;292;48.800;9.216;2023-03-31T07:50:20;7.60;;;2.70;;
609;SDS011;292;48.800;9.216;2023-03-31T07:52:50;4.50;;;2.33;;
609;SDS011;292;48.800;9.216;2023-03-31T07:55:17;5.13;;;1.83;;
609;SDS011;292;48.800;9.216;2023-03-31T07:57:45;4.67;;;1.83;;
609;SDS011;292;48.800;9.216;2023-03-31T08:00:13;4.50;;;1.43;;
609;SDS011;292;48.800;9.216;2023-03-31T08:02:46;4.20;;;1.47;;
609;SDS011;292;48.800;9.216;2023-03-31T08:05:14;5.20;;;1.50;;
609;SDS011;292;48.800;9.216;2023-03-31T08:07:45;5.83;;;1.90;;
609;SDS011;292;48.800;9.216;2023-03-31T08:10:15;5.53;;;1.70;;
609;SDS011;292;48.800;9.216;2023-03-31T08:12:45;4.97;;;1.20;;
609;SDS011;292;48.800;9.216;2023-03-31T08:15:12;2.47;;;1.17;;
609;SDS011;292;48.800;9.216;2023-03-31T08:17:42;3.97;;;1.20;;
609;SDS011;292;48.800;9.216;2023-03-31T08:20:12;4.43;;;1.17;;
609;SDS011;292;48.800;9.216;2023-03-31T08:22:41;4.10;;;1.07;;
609;SDS011;292;48.800;9.216;2023-03-31T08:25:08;4.77;;;1.20;;
609;SDS011;292;48.800;9.216;2023-03-31T08:27:37;1.93;;;1.07;;
609;SDS011;292;48.800;9.216;2023-03-31T08:30:09;2.60;;;0.90;;
609;SDS011;292;48.800;9.216;2023-03-31T08:32:37;1.20;;;0.70;;
609;SDS011;292;48.800;9.216;2023-03-31T08:35:07;1.90;;;1.10;;
609;SDS011;292;48.800;9.216;2023-03-31T08:37:34;2.67;;;1.43;;
609;SDS011;292;48.800;9.216;2023-03-31T08:40:01;1.77;;;1.03;;
609;SDS011;292;48.800;9.216;2023-03-31T08:42:35;4.20;;;1.33;;
609;SDS011;292;48.800;9.216;2023-03-31T08:45:09;3.10;;;1.30;;
609;SDS011;292;48.800;9.216;2023-03-31T08:47:41;10.67;;;1.40;;
609;SDS011;292;48.800;9.216;2023-03-31T08:50:13;4.07;;;1.10;;
609;SDS011;292;48.800;9.216;2023-03-31T08:52:43;4.70;;;1.20;;
609;SDS011;292;48.800;9.216;2023-03-31T08:55:16;4.73;;;1.40;;
609;SDS011;292;48.800;9.216;2023-03-31T08:57:53;4.30;;;1.50;;
609;SDS011;292;48.800;9.216;2023-03-31T09:00:44;4.93;;;1.37;;
609;SDS011;292;48.800;9.216;2023-03-31T09:03:17;5.70;;;1.10;;
609;SDS011;292;48.800;9.216;2023-03-31T09:05:52;6.50;;;1.47;;
609;SDS011;292;48.800;9.216;2023-03-31T09:08:30;6.87;;;1.60;;
609;SDS011;292;48.800;9.216;2023-03-31T09:11:01;5.20;;;1.20;;
609;SDS011;292;48.800;9.216;2023-03-31T09:13:46;4.33;;;1.50;;
609;SDS011;292;48.800;9.216;2023-03-31T09:16:39;6.27;;;1.60;;
609;SDS011;292;48.800;9.216;2023-03-31T09:19:14;7.20;;;1.23;;
609;SDS011;292;48.800;9.216;2023-03-31T09:21:53;4.10;;;1.13;;
609;SDS011;292;48.800;9.216;2023-03-31T09:24:22;6.60;;;1.30;;
609;SDS011;292;48.800;9.216;2023-03-31T09:26:53;7.60;;;1.53;;
609;SDS011;292;48.800;9.216;2023-03-31T09:29:23;4.23;;;1.23;;
609;SDS011;292;48.800;9.216;2023-03-31T09:32:01;5.83;;;1.27;;
609;SDS011;292;48.800;9.216;2023-03-31T09:34:45;5.30;;;1.40;;
609;SDS011;292;48.800;9.216;2023-03-31T09:37:15;3.17;;;1.10;;
609;SDS011;292;48.800;9.216;2023-03-31T09:39:42;5.50;;;1.10;;
609;SDS011;292;48.800;9.216;2023-03-31T09:42:10;5.23;;;1.37;;
609;SDS011;292;48.800;9.216;2023-03-31T09:44:39;6.57;;;1.23;;
609;SDS011;292;48.800;9.216;2023-03-31T09:47:11;5.83;;;1.73;;
609;SDS011;292;48.800;9.216;2023-03-31T09:49:41;5.90;;;1.53;;
609;SDS011;292;48.800;9.216;2023-03-31T09:52:13;4.90;;;1.53;;
609;SDS011;292;48.800;9.216;2023-03-31T09:54:55;8.10;;;1.77;;
609;SDS011;292;48.800;9.216;2023-03-31T09:57:28;5.17;;;1.63;;
609;SDS011;292;48.800;9.216;2023-03-31T10:00:00;8.97;;;1.67;;
609;SDS011;292;48.800;9.216;2023-03-31T10:02:37;10.87;;;1.90;;
609;SDS011;292;48.800;9.216;2023-03-31T10:05:07;6.27;;;1.13;;
609;SDS011;292;48.800;9.216;2023-03-31T10:07:52;9.00;;;1.80;;
609;SDS011;292;48.800;9.216;2023-03-31T10:10:37;4.90;;;1.33;;
609;SDS011;292;48.800;9.216;2023-03-31T10:13:09;7.10;;;1.50;;
609;SDS011;292;48.800;9.216;2023-03-31T10:15:39;3.90;;;1.40;;
609;SDS011;292;48.800;9.216;2023-03-31T10:18:12;3.90;;;1.60;;
609;SDS011;292;48.800;9.216;2023-03-31T10:20:42;7.43;;;1.60;;
609;SDS011;292;48.800;9.216;2023-03-31T10:23:18;5.97;;;1.30;;
609;SDS011;292;48.800;9.216;2023-03-31T10:25:54;7.37;;;1.60;;
609;SDS011;292;48.800;9.216;2023-03-31T10:28:29;9.70;;;1.50;;
609;SDS011;292;48.800;9.216;2023-03-31T10:31:05;5.27;;;1.53;;
609;SDS011;292;48.800;9.216;2023-03-31T10:33:32;9.97;;;1.50;;
609;SDS011;292;48.800;9.216;2023-03-31T10:36:06;12.53;;;1.70;;
609;SDS011;292;48.800;9.216;2023-03-31T10:38:50;9.17;;;1.63;;
609;SDS011;292;48.800;9.216;2023-03-31T10:41:18;12.07;;;2.40;;
609;SDS011;292;48.800;9.216;2023-03-31T10:43:48;2.93;;;1.10;;
609;SDS011;292;48.800;9.216;2023-03-31T10:46:17;5.00;;;1.30;;
609;SDS011;292;48.800;9.216;2023-03-31T10:48:44;10.77;;;1.90;;
609;SDS011;292;48.800;9.216;2023-03-31T10:51:13;4.43;;;1.40;;
609;SDS011;292;48.800;9.216;2023-03-31T10:53:43;5.60;;;1.57;;
609;SDS011;292;48.800;9.216;2023-03-31T10:56:16;16.27;;;2.37;;
609;SDS011;292;48.800;9.216;2023-03-31T10:59:05;12.10;;;2.10;;
609;SDS011;292;48.800;9.216;2023-03-31T11:01:42;5.97;;;1.50;;
609;SDS011;292;48.800;9.216;2023-03-31T11:04:26;8.97;;;1.73;;
609;SDS011;292;48.800;9.216;2023-03-31T11:07:10;6.30;;;1.23;;
609;SDS011;292;48.800;9.216;2023-03-31T11:09:54;6.43;;;1.70;;
609;SDS011;292;48.800;9.216;2023-03-31T11:12:31;7.77;;;1.63;;
609;SDS011;292;48.800;9.216;2023-03-31T11:15:06;12.30;;;1.97;;
609;SDS011;292;48.800;9.216;2023-03-31T11:17:49;9.77;;;1.73;;
609;SDS011;292;48.800;9.216;2023-03-31T11:20:27;6.47;;;1.87;;
609;SDS011;292;48.800;9.216;2023-03-31T11:23:02;6.30;;;1.37;;
609;SDS011;292;48.800;9.216;2023-03-31T11:25:39;21.43;;;1.57;;
609;SDS011;292;48.800;9.216;2023-03-31T11:31:17;10.50;;;1.00;;
609;SDS011;292;48.800;9.216;2023-03-31T11:34:00;2.93;;;0.60;;
609;SDS011;292;48.800;9.216;2023-03-31T11:36:50;3.67;;;0.70;;
609;SDS011;292;48.800;9.216;2023-03-31T11:39:40;0.93;;;0.40;;
609;SDS011;292;48.800;9.216;2023-03-31T11:42:13;3.00;;;0.90;;
609;SDS011;292;48.800;9.216;2023-03-31T11:44:53;1.37;;;0.60;;
609;SDS011;292;48.800;9.216;2023-03-31T11:47:25;2.57;;;0.50;;
609;SDS011;292;48.800;9.216;2023-03-31T11:49:57;2.00;;;0.53;;
609;SDS011;292;48.800;9.216;2023-03-31T11:52:29;5.27;;;0.70;;
609;SDS011;292;48.800;9.216;2023-03-31T11:55:00;5.50;;;0.87;;
609;SDS011;292;48.800;9.216;2023-03-31T11:57:30;1.33;;;0.67;;
609;SDS011;292;48.800;9.216;2023-03-31T12:00:08;1.67;;;0.70;;
609;SDS011;292;48.800;9.216;2023-03-31T12:02:43;2.20;;;0.60;;
609;SDS011;292;48.800;9.216;2023-03-31T12:05:17;2.17;;;0.67;;
609;SDS011;292;48.800;9.216;2023-03-31T12:07:47;2.00;;;0.70;;
609;SDS011;292;48.800;9.216;2023-03-31T12:10:22;0.70;;;0.53;;
609;SDS011;292;48.800;9.216;2023-03-31T12:12:58;1.00;;;0.47;;
609;SDS011;292;48.800;9.216;2023-03-31T12:15:36;5.40;;;0.80;;
609;SDS011;292;48.800;9.216;2023-03-31T12:18:09;1.40;;;0.50;;
609;SDS011;292;48.800;9.216;2023-03-31T12:20:40;0.87;;;0.50;;
609;SDS011;292;48.800;9.216;2023-03-31T12:23:12;4.47;;;0.73;;
609;SDS011;292;48.800;9.216;2023-03-31T12:25:44;3.20;;;1.17;;
609;SDS011;292;48.800;9.216;2023-03-31T12:28:18;2.40;;;0.90;;
609;SDS011;292;48.800;9.216;2023-03-31T12:30:49;1.30;;;0.60;;
609;SDS011;292;48.800;9.216;2023-03-31T12:33:17;5.07;;;1.83;;
609;SDS011;292;48.800;9.216;2023-03-31T12:35:54;2.83;;;0.80;;
609;SDS011;292;48.800;9.216;2023-03-31T12:38:45;4.10;;;0.90;;
609;SDS011;292;48.800;9.216;2023-03-31T12:41:23;8.93;;;0.83;;
609;SDS011;292;48.800;9.216;2023-03-31T12:44:02;3.23;;;0.60;;
609;SDS011;292;48.800;9.216;2023-03-31T12:47:00;3.73;;;0.80;;
609;SDS011;292;48.800;9.216;2023-03-31T12:49:47;0.60;;;0.57;;
609;SDS011;292;48.800;9.216;2023-03-31T12:52:26;3.20;;;0.90;;
609;SDS011;292;48.800;9.216;2023-03-31T13:01:07;1.03;;;0.50;;
609;SDS011;292;48.800;9.216;2023-03-31T13:03:47;2.73;;;1.00;;
609;SDS011;292;48.800;9.216;2023-03-31T13:12:05;7.07;;;1.00;;
609;SDS011;292;48.800;9.216;2023-03-31T13:14:35;3.50;;;1.20;;
609;SDS011;292;48.800;9.216;2023-03-31T13:17:11;5.30;;;1.10;;
609;SDS011;292;48.800;9.216;2023-03-31T13:19:45;4.30;;;1.40;;
609;SDS011;292;48.800;9.216;2023-03-31T13:22:26;2.77;;;0.57;;
609;SDS011;292;48.800;9.216;2023-03-31T13:28:17;6.20;;;1.20;;
609;SDS011;292;48.800;9.216;2023-03-31T13:30:57;3.60;;;0.80;;
609;SDS011;292;48.800;9.216;2023-03-31T13:33:27;10.27;;;1.13;;
609;SDS011;292;48.800;9.216;2023-03-31T13:39:26;1.60;;;0.53;;
609;SDS011;292;48.800;9.216;2023-03-31T13:42:15;2.00;;;0.50;;
609;SDS011;292;48.800;9.216;2023-03-31T13:45:07;2.43;;;0.70;;
609;SDS011;292;48.800;9.216;2023-03-31T13:48:09;2.67;;;0.73;;
609;SDS011;292;48.800;9.216;2023-03-31T13:54:01;3.57;;;0.93;;
609;SDS011;292;48.800;9.216;2023-03-31T13:56:51;4.37;;;0.70;;
609;SDS011;292;48.800;9.216;2023-03-31T13:59:43;4.97;;;0.87;;
609;SDS011;292;48.800;9.216;2023-03-31T14:02:38;1.27;;;0.50;;
609;SDS011;292;48.800;9.216;2023-03-31T14:05:24;1.47;;;0.40;;
609;SDS011;292;48.800;9.216;2023-03-31T14:07:56;5.47;;;0.90;;
609;SDS011;292;48.800;9.216;2023-03-31T14:10:29;1.77;;;0.60;;
609;SDS011;292;48.800;9.216;2023-03-31T14:13:04;7.03;;;0.90;;
609;SDS011;292;48.800;9.216;2023-03-31T14:15:35;1.63;;;0.50;;
609;SDS011;292;48.800;9.216;2023-03-31T14:18:04;2.20;;;0.60;;
609;SDS011;292;48.800;9.216;2023-03-31T14:20:38;2.67;;;0.60;;
609;SDS011;292;48.800;9.216;2023-03-31T14:23:29;2.53;;;0.60;;
609;SDS011;292;48.800;9.216;2023-03-31T14:26:06;9.60;;;1.70;;
609;SDS011;292;48.800;9.216;2023-03-31T14:28:53;1.10;;;0.50;;
609;SDS011;292;48.800;9.216;2023-03-31T14:31:29;5.33;;;1.23;;
609;SDS011;292;48.800;9.216;2023-03-31T14:34:14;1.90;;;0.70;;
609;SDS011;292;48.800;9.216;2023-03-31T14:36:51;3.00;;;1.07;;
609;SDS011;292;48.800;9.216;2023-03-31T14:39:25;3.63;;;0.73;;
609;SDS011;292;48.800;9.216;2023-03-31T14:41:58;1.30;;;0.57;;
609;SDS011;292;48.800;9.216;2023-03-31T14:44:32;1.10;;;0.50;;
609;SDS011;292;48.800;9.216;2023-03-31T14:47:02;2.97;;;0.50;;
609;SDS011;292;48.800;9.216;2023-03-31T14:49:33;2.17;;;0.73;;
609;SDS011;292;48.800;9.216;2023-03-31T14:52:03;0.50;;;0.50;;
609;SDS011;292;48.800;9.216;2023-03-31T14:54:39;1.37;;;0.77;;
609;SDS011;292;48.800;9.216;2023-03-31T14:57:08;3.43;;;0.70;;
609;SDS011;292;48.800;9.216;2023-03-31T14:59:39;0.77;;;0.70;;
609;SDS011;292;48.800;9.216;2023-03-31T15:02:08;4.07;;;1.30;;
609;SDS011;292;48.800;9.216;2023-03-31T15:04:42;3.13;;;0.53;;
609;SDS011;292;48.800;9.216;2023-03-31T15:07:13;1.87;;;0.63;;
609;SDS011;292;48.800;9.216;2023-03-31T15:09:43;5.53;;;0.87;;
609;SDS011;292;48.800;9.216;2023-03-31T15:12:17;5.73;;;1.27;;
609;SDS011;292;48.800;9.216;2023-03-31T15:14:48;3.73;;;0.70;;
609;SDS011;292;48.800;9.216;2023-03-31T15:17:17;3.30;;;0.70;;
609;SDS011;292;48.800;9.216;2023-03-31T15:19:50;2.53;;;0.63;;
609;SDS011;292;48.800;9.216;2023-03-31T15:22:21;5.57;;;0.97;;
609;SDS011;292;48.800;9.216;2023-03-31T15:24:51;4.23;;;1.10;;
609;SDS011;292;48.800;9.216;2023-03-31T15:27:29;3.80;;;0.80;;
609;SDS011;292;48.800;9.216;2023-03-31T15:30:00;1.70;;;0.70;;
609;SDS011;292;48.800;9.216;2023-03-31T15:32:30;1.80;;;0.70;;
609;SDS011;292;48.800;9.216;2023-03-31T15:35:00;19.50;;;8.10;;
609;SDS011;292;48.800;9.216;2023-03-31T15:37:29;2.77;;;0.90;;
609;SDS011;292;48.800;9.216;2023-03-31T15:40:02;4.53;;;1.30;;
609;SDS011;292;48.800;9.216;2023-03-31T15:42:34;4.60;;;1.00;;
609;SDS011;292;48.800;9.216;2023-03-31T15:45:22;2.60;;;0.90;;
609;SDS011;292;48.800;9.216;2023-03-31T15:48:11;2.70;;;0.80;;
609;SDS011;292;48.800;9.216;2023-03-31T15:50:43;3.33;;;1.13;;
609;SDS011;292;48.800;9.216;2023-03-31T15:53:20;2.10;;;0.57;;
609;SDS011;292;48.800;9.216;2023-03-31T15:55:54;1.47;;;0.90;;
609;SDS011;292;48.800;9.216;2023-03-31T15:58:44;3.10;;;0.93;;
609;SDS011;292;48.800;9.216;2023-03-31T16:01:13;1.70;;;0.70;;
609;SDS011;292;48.800;9.216;2023-03-31T16:03:41;3.37;;;0.80;;
609;SDS011;292;48.800;9.216;2023-03-31T16:06:18;4.37;;;0.87;;
609;SDS011;292;48.800;9.216;2023-03-31T16:08:50;9.60;;;1.00;;
609;SDS011;292;48.800;9.216;2023-03-31T16:11:32;9.23;;;0.87;;
609;SDS011;292;48.800;9.216;2023-03-31T16:14:06;4.20;;;0.80;;
609;SDS011;292;48.800;9.216;2023-03-31T16:16:46;4.43;;;1.00;;
609;SDS011;292;48.800;9.216;2023-03-31T16:19:16;4.13;;;0.93;;
609;SDS011;292;48.800;9.216;2023-03-31T16:21:45;7.60;;;1.20;;
609;SDS011;292;48.800;9.216;2023-03-31T16:24:16;6.33;;;1.60;;
609;SDS011;292;48.800;9.216;2023-03-31T16:26:46;1.93;;;0.80;;
609;SDS011;292;48.800;9.216;2023-03-31T16:29:19;2.70;;;0.97;;
609;SDS011;292;48.800;9.216;2023-03-31T16:31:47;8.63;;;0.80;;
609;SDS011;292;48.800;9.216;2023-03-31T16:34:14;2.73;;;1.13;;
609;SDS011;292;48.800;9.216;2023-03-31T16:36:42;2.20;;;0.90;;
609;SDS011;292;48.800;9.216;2023-03-31T16:39:09;2.80;;;0.90;;
609;SDS011;292;48.800;9.216;2023-03-31T16:41:36;2.93;;;0.87;;
609;SDS011;292;48.800;9.216;2023-03-31T16:44:04;3.10;;;0.80;;